sensor_id;sensor_type;location;lat;lon;timestamp;temperature;humidity
5743;DHT22;2896;53.500;10.020;2023-04-01T00:01:22;10.10;99.90
5743;DHT22;2896;53.500;10.020;2023-04-01T00:03:49;10.00;99.90
5743;DHT22;2896;53.500;10.020;2023-04-01T00:06:18;10.10;99.90
5743;DHT22;2896;53.500;10.020;2023-04-01T00:08:45;10.00;99.90
5743;DHT22;2896;53.500;10.020;2023-04-01T00:11:12;9.90;99.90
5743;DHT22;2896;53.500;10.020;2023-04-01T00:13:40;10.00;99.90
5743;DHT22;2896;53.500;10.020;2023-04-01T00:16:07;10.00;99.90
5743;DHT22;2896;53.500;10.020;2023-04-01T00:18:34;9.90;99.90
5743;DHT22;2896;53.500;10.020;2023-04-01T00:21:01;10.00;99.90
5743;DHT22;2896;53.500;10.020;2023-04-01T00:23:29;10.00;99.90
5743;DHT22;2896;53.500;10.020;2023-04-01T00:25:55;10.00;99.90
5743;DHT22;2896;53.500;10.020;2023-04-01T00:28:22;10.00;99.90
5743;DHT22;2896;53.500;10.020;2023-04-01T00:30:49;10.00;99.90
5743;DHT22;2896;53.500;10.020;2023-04-01T00:33:15;11.40;99.90
5743;DHT22;2896;53.500;10.020;2023-04-01T00:35:42;10.00;99.90
5743;DHT22;2896;53.500;10.020;2023-04-01T00:38:10;10.00;99.90
5743;DHT22;2896;53.500;10.020;2023-04-01T00:40:39;10.00;99.90
5743;DHT22;2896;53.500;10.020;2023-04-01T00:43:11;10.00;99.90
5743;DHT22;2896;53.500;10.020;2023-04-01T00:45:40;10.00;99.90
5743;DHT22;2896;53.500;10.020;2023-04-01T00:48:10;9.90;99.90
5743;DHT22;2896;53.500;10.020;2023-04-01T00:50:39;9.90;99.90
5743;DHT22;2896;53.500;10.020;2023-04-01T00:53:07;9.80;99.90
5743;DHT22;2896;53.500;10.020;2023-04-01T00:55:38;9.80;99.90
5743;DHT22;2896;53.500;10.020;2023-04-01T00:58:10;9.80;99.90
5743;DHT22;2896;53.500;10.020;2023-04-01T01:00:38;9.80;99.90
5743;DHT22;2896;53.500;10.020;2023-04-01T01:03:05;9.80;99.90
5743;DHT22;2896;53.500;10.020;2023-04-01T01:05:40;9.80;99.90
5743;DHT22;2896;53.500;10.020;2023-04-01T01:08:15;9.70;99.90
5743;DHT22;2896;53.500;10.020;2023-04-01T01:10:49;9.70;99.90
5743;DHT22;2896;53.500;10.020;2023-04-01T01:13:18;9.70;99.90
5743;DHT22;2896;53.500;10.020;2023-04-01T01:15:49;9.70;99.90
5743;DHT22;2896;53.500;10.020;2023-04-01T01:18:24;9.70;99.90
5743;DHT22;2896;53.500;10.020;2023-04-01T01:24:04;9.70;99.90
5743;DHT22;2896;53.500;10.020;2023-04-01T01:26:51;9.80;99.90
5743;DHT22;2896;53.500;10.020;2023-04-01T01:32:33;9.80;99.90
5743;DHT22;2896;53.500;10.020;2023-04-01T01:35:25;9.80;99.90
5743;DHT22;2896;53.500;10.020;2023-04-01T01:37:55;9.90;99.90
5743;DHT22;2896;53.500;10.020;2023-04-01T01:40:24;9.80;99.90
5743;DHT22;2896;53.500;10.020;2023-04-01T01:42:56;9.80;99.90
5743;DHT22;2896;53.500;10.020;2023-04-01T01:45:26;9.80;99.90
5743;DHT22;2896;53.500;10.020;2023-04-01T01:47:54;9.80;99.90
5743;DHT22;2896;53.500;10.020;2023-04-01T01:50:25;9.80;99.90
5743;DHT22;2896;53.500;10.020;2023-04-01T01:53:04;9.80;99.90
5743;DHT22;2896;53.500;10.020;2023-04-01T01:55:32;9.80;99.90
5743;DHT22;2896;53.500;10.020;2023-04-01T01:58:02;9.80;99.90
5743;DHT22;2896;53.500;10.020;2023-04-01T02:00:31;9.70;99.90
5743;DHT22;2896;53.500;10.020;2023-04-01T02:02:58;9.70;99.90
5743;DHT22;2896;53.500;10.020;2023-04-01T02:05:28;9.70;99.90
5743;DHT22;2896;53.500;10.020;2023-04-01T02:08:01;11.10;99.90
5743;DHT22;2896;53.500;10.020;2023-04-01T02:10:29;9.80;99.90
5743;DHT22;2896;53.500;10.020;2023-04-01T02:13:00;9.70;99.90
5743;DHT22;2896;53.500;10.020;2023-04-01T02:15:31;9.80;99.90
5743;DHT22;2896;53.500;10.020;2023-04-01T02:17:58;9.70;99.90
5743;DHT22;2896;53.500;10.020;2023-04-01T02:20:28;9.70;99.90
5743;DHT22;2896;53.500;10.020;2023-04-01T02:22:56;9.60;99.90
5743;DHT22;2896;53.500;10.020;2023-04-01T02:25:27;9.60;99.90
5743;DHT22;2896;53.500;10.020;2023-04-01T02:27:56;9.60;99.90
5743;DHT22;2896;53.500;10.020;2023-04-01T02:30:25;9.60;99.90
5743;DHT22;2896;53.500;10.020;2023-04-01T02:32:53;9.70;99.90
5743;DHT22;2896;53.500;10.020;2023-04-01T02:35:20;9.70;99.90
5743;DHT22;2896;53.500;10.020;2023-04-01T02:37:49;9.70;99.90
5743;DHT22;2896;53.500;10.020;2023-04-01T02:40:17;9.70;99.90
5743;DHT22;2896;53.500;10.020;2023-04-01T02:42:44;9.70;99.90
5743;DHT22;2896;53.500;10.020;2023-04-01T02:45:12;9.70;99.90
5743;DHT22;2896;53.500;10.020;2023-04-01T02:47:39;9.70;99.90
5743;DHT22;2896;53.500;10.020;2023-04-01T02:50:07;9.70;99.90
5743;DHT22;2896;53.500;10.020;2023-04-01T02:52:33;9.70;99.90
5743;DHT22;2896;53.500;10.020;2023-04-01T02:55:02;9.80;99.90
5743;DHT22;2896;53.500;10.020;2023-04-01T02:57:29;9.80;99.90
5743;DHT22;2896;53.500;10.020;2023-04-01T02:59:55;9.70;99.90
5743;DHT22;2896;53.500;10.020;2023-04-01T03:02:22;9.70;99.90
5743;DHT22;2896;53.500;10.020;2023-04-01T03:04:49;9.70;99.90
5743;DHT22;2896;53.500;10.020;2023-04-01T03:07:15;9.70;99.90
5743;DHT22;2896;53.500;10.020;2023-04-01T03:09:42;9.60;99.90
5743;DHT22;2896;53.500;10.020;2023-04-01T03:12:10;9.60;99.90
5743;DHT22;2896;53.500;10.020;2023-04-01T03:14:37;9.60;99.90
5743;DHT22;2896;53.500;10.020;2023-04-01T03:17:03;9.70;99.90
5743;DHT22;2896;53.500;10.020;2023-04-01T03:19:30;9.70;99.90
5743;DHT22;2896;53.500;10.020;2023-04-01T03:21:57;9.60;99.90
5743;DHT22;2896;53.500;10.020;2023-04-01T03:24:24;9.70;99.90
5743;DHT22;2896;53.500;10.020;2023-04-01T03:26:50;9.60;99.90
5743;DHT22;2896;53.500;10.020;2023-04-01T03:29:18;9.60;99.90
5743;DHT22;2896;53.500;10.020;2023-04-01T03:31:45;9.80;99.90
5743;DHT22;2896;53.500;10.020;2023-04-01T03:34:11;9.70;99.90
5743;DHT22;2896;53.500;10.020;2023-04-01T03:36:38;9.70;99.90
5743;DHT22;2896;53.500;10.020;2023-04-01T03:39:05;9.60;99.90
5743;DHT22;2896;53.500;10.020;2023-04-01T03:41:31;9.80;99.90
5743;DHT22;2896;53.500;10.020;2023-04-01T03:43:58;9.70;99.90
5743;DHT22;2896;53.500;10.020;2023-04-01T03:46:26;9.70;99.90
5743;DHT22;2896;53.500;10.020;2023-04-01T03:48:53;9.70;99.90
5743;DHT22;2896;53.500;10.020;2023-04-01T03:51:20;9.60;99.90
5743;DHT22;2896;53.500;10.020;2023-04-01T03:53:46;9.60;99.90
5743;DHT22;2896;53.500;10.020;2023-04-01T03:56:13;9.70;99.90
5743;DHT22;2896;53.500;10.020;2023-04-01T03:58:40;9.70;99.90
5743;DHT22;2896;53.500;10.020;2023-04-01T04:01:14;9.60;99.90
5743;DHT22;2896;53.500;10.020;2023-04-01T04:03:42;9.70;99.90
5743;DHT22;2896;53.500;10.020;2023-04-01T04:06:11;9.60;99.90
5743;DHT22;2896;53.500;10.020;2023-04-01T04:08:38;9.80;99.90
5743;DHT22;2896;53.500;10.020;2023-04-01T04:11:05;9.80;99.90
5743;DHT22;2896;53.500;10.020;2023-04-01T04:13:32;9.70;99.90
5743;DHT22;2896;53.500;10.020;2023-04-01T04:15:58;9.70;99.90
5743;DHT22;2896;53.500;10.020;2023-04-01T04:18:25;9.70;99.90
5743;DHT22;2896;53.500;10.020;2023-04-01T04:20:53;9.70;99.90
5743;DHT22;2896;53.500;10.020;2023-04-01T04:23:20;9.60;99.90
5743;DHT22;2896;53.500;10.020;2023-04-01T04:25:54;9.60;99.90
5743;DHT22;2896;53.500;10.020;2023-04-01T04:28:21;9.60;99.90
5743;DHT22;2896;53.500;10.020;2023-04-01T04:30:47;9.70;99.90
5743;DHT22;2896;53.500;10.020;2023-04-01T04:33:14;9.70;99.90
5743;DHT22;2896;53.500;10.020;2023-04-01T04:35:41;9.70;99.90
5743;DHT22;2896;53.500;10.020;2023-04-01T04:38:09;9.70;99.90
5743;DHT22;2896;53.500;10.020;2023-04-01T04:40:36;9.70;99.90
5743;DHT22;2896;53.500;10.020;2023-04-01T04:43:03;9.70;99.90
5743;DHT22;2896;53.500;10.020;2023-04-01T04:45:30;9.60;99.90
5743;DHT22;2896;53.500;10.020;2023-04-01T04:47:56;9.70;99.90
5743;DHT22;2896;53.500;10.020;2023-04-01T04:50:24;9.70;99.90
5743;DHT22;2896;53.500;10.020;2023-04-01T04:52:51;9.80;99.90
5743;DHT22;2896;53.500;10.020;2023-04-01T04:55:19;9.80;99.90
5743;DHT22;2896;53.500;10.020;2023-04-01T04:57:46;9.70;99.90
5743;DHT22;2896;53.500;10.020;2023-04-01T05:00:13;9.70;99.90
5743;DHT22;2896;53.500;10.020;2023-04-01T05:02:39;9.70;99.90
5743;DHT22;2896;53.500;10.020;2023-04-01T05:05:07;9.60;99.90
5743;DHT22;2896;53.500;10.020;2023-04-01T05:07:34;9.60;99.90
5743;DHT22;2896;53.500;10.020;2023-04-01T05:10:00;9.70;99.90
5743;DHT22;2896;53.500;10.020;2023-04-01T05:12:28;9.60;99.90
5743;DHT22;2896;53.500;10.020;2023-04-01T05:14:56;9.70;99.90
5743;DHT22;2896;53.500;10.020;2023-04-01T05:17:22;9.70;99.90
5743;DHT22;2896;53.500;10.020;2023-04-01T05:19:49;9.80;99.90
5743;DHT22;2896;53.500;10.020;2023-04-01T05:22:16;9.70;99.90
5743;DHT22;2896;53.500;10.020;2023-04-01T05:24:42;9.80;99.90
5743;DHT22;2896;53.500;10.020;2023-04-01T05:27:09;9.70;99.90
5743;DHT22;2896;53.500;10.020;2023-04-01T05:29:37;9.70;99.90
5743;DHT22;2896;53.500;10.020;2023-04-01T05:32:04;9.80;99.90
5743;DHT22;2896;53.500;10.020;2023-04-01T05:34:31;9.80;99.90
5743;DHT22;2896;53.500;10.020;2023-04-01T05:36:57;9.80;99.90
5743;DHT22;2896;53.500;10.020;2023-04-01T05:39:24;9.80;99.90
5743;DHT22;2896;53.500;10.020;2023-04-01T05:41:51;9.80;99.90
5743;DHT22;2896;53.500;10.020;2023-04-01T05:44:17;9.90;99.90
5743;DHT22;2896;53.500;10.020;2023-04-01T05:46:45;9.80;99.90
5743;DHT22;2896;53.500;10.020;2023-04-01T05:49:12;9.80;99.90
5743;DHT22;2896;53.500;10.020;2023-04-01T05:51:39;9.80;99.90
5743;DHT22;2896;53.500;10.020;2023-04-01T05:54:05;11.60;99.90
5743;DHT22;2896;53.500;10.020;2023-04-01T05:56:32;9.80;99.90
5743;DHT22;2896;53.500;10.020;2023-04-01T05:58:59;9.80;99.90
5743;DHT22;2896;53.500;10.020;2023-04-01T06:01:25;9.80;99.90
5743;DHT22;2896;53.500;10.020;2023-04-01T06:03:53;9.80;99.90
5743;DHT22;2896;53.500;10.020;2023-04-01T06:06:24;9.70;99.90
5743;DHT22;2896;53.500;10.020;2023-04-01T06:08:51;9.50;99.90
5743;DHT22;2896;53.500;10.020;2023-04-01T06:11:24;9.20;99.90
5743;DHT22;2896;53.500;10.020;2023-04-01T06:14:07;9.10;99.90
5743;DHT22;2896;53.500;10.020;2023-04-01T06:16:44;8.90;99.90
5743;DHT22;2896;53.500;10.020;2023-04-01T06:19:29;8.90;99.90
5743;DHT22;2896;53.500;10.020;2023-04-01T06:22:22;8.80;99.90
5743;DHT22;2896;53.500;10.020;2023-04-01T06:25:04;8.70;99.90
5743;DHT22;2896;53.500;10.020;2023-04-01T06:27:49;8.50;99.90
5743;DHT22;2896;53.500;10.020;2023-04-01T06:30:33;8.40;99.90
5743;DHT22;2896;53.500;10.020;2023-04-01T06:36:16;8.20;99.90
5743;DHT22;2896;53.500;10.020;2023-04-01T06:39:01;8.20;99.90
5743;DHT22;2896;53.500;10.020;2023-04-01T06:41:56;8.30;99.90
5743;DHT22;2896;53.500;10.020;2023-04-01T06:44:36;8.10;99.90
5743;DHT22;2896;53.500;10.020;2023-04-01T06:47:26;7.90;99.90
5743;DHT22;2896;53.500;10.020;2023-04-01T06:50:00;7.90;99.90
5743;DHT22;2896;53.500;10.020;2023-04-01T06:52:39;7.90;99.90
5743;DHT22;2896;53.500;10.020;2023-04-01T06:55:21;7.70;99.90
5743;DHT22;2896;53.500;10.020;2023-04-01T06:57:52;7.80;99.90
5743;DHT22;2896;53.500;10.020;2023-04-01T07:00:25;7.80;99.90
5743;DHT22;2896;53.500;10.020;2023-04-01T07:02:59;9.50;99.90
5743;DHT22;2896;53.500;10.020;2023-04-01T07:05:30;7.80;99.90
5743;DHT22;2896;53.500;10.020;2023-04-01T07:08:01;7.60;99.90
5743;DHT22;2896;53.500;10.020;2023-04-01T07:10:34;7.70;99.90
5743;DHT22;2896;53.500;10.020;2023-04-01T07:13:04;7.60;99.90
5743;DHT22;2896;53.500;10.020;2023-04-01T07:15:37;7.60;99.90
5743;DHT22;2896;53.500;10.020;2023-04-01T07:18:12;7.50;99.90
5743;DHT22;2896;53.500;10.020;2023-04-01T07:20:42;7.50;99.90
5743;DHT22;2896;53.500;10.020;2023-04-01T07:23:19;7.50;99.90
5743;DHT22;2896;53.500;10.020;2023-04-01T07:25:51;7.40;99.90
5743;DHT22;2896;53.500;10.020;2023-04-01T07:28:18;7.40;99.90
5743;DHT22;2896;53.500;10.020;2023-04-01T07:30:52;7.20;99.90
5743;DHT22;2896;53.500;10.020;2023-04-01T07:33:26;7.30;99.90
5743;DHT22;2896;53.500;10.020;2023-04-01T07:35:57;7.20;99.90
5743;DHT22;2896;53.500;10.020;2023-04-01T07:38:32;7.20;99.90
5743;DHT22;2896;53.500;10.020;2023-04-01T07:41:08;7.10;99.90
5743;DHT22;2896;53.500;10.020;2023-04-01T07:43:45;7.30;99.90
5743;DHT22;2896;53.500;10.020;2023-04-01T07:46:28;7.20;99.90
5743;DHT22;2896;53.500;10.020;2023-04-01T07:49:04;7.10;99.90
5743;DHT22;2896;53.500;10.020;2023-04-01T07:51:38;7.20;99.90
5743;DHT22;2896;53.500;10.020;2023-04-01T07:54:15;7.10;99.90
5743;DHT22;2896;53.500;10.020;2023-04-01T07:56:47;7.10;99.90
5743;DHT22;2896;53.500;10.020;2023-04-01T07:59:19;7.00;99.90
5743;DHT22;2896;53.500;10.020;2023-04-01T08:01:54;6.90;99.90
5743;DHT22;2896;53.500;10.020;2023-04-01T08:04:39;7.10;99.90
5743;DHT22;2896;53.500;10.020;2023-04-01T08:07:15;7.00;99.90
5743;DHT22;2896;53.500;10.020;2023-04-01T08:09:48;7.00;99.90
5743;DHT22;2896;53.500;10.020;2023-04-01T08:12:26;7.10;99.90
5743;DHT22;2896;53.500;10.020;2023-04-01T08:15:04;7.10;99.90
5743;DHT22;2896;53.500;10.020;2023-04-01T08:17:40;7.10;99.90
5743;DHT22;2896;53.500;10.020;2023-04-01T08:20:23;7.10;99.90
5743;DHT22;2896;53.500;10.020;2023-04-01T08:22:56;7.10;99.90
5743;DHT22;2896;53.500;10.020;2023-04-01T08:25:26;7.10;99.90
5743;DHT22;2896;53.500;10.020;2023-04-01T08:27:57;7.10;99.90
5743;DHT22;2896;53.500;10.020;2023-04-01T08:30:28;7.00;99.90
5743;DHT22;2896;53.500;10.020;2023-04-01T08:33:01;7.00;99.90
5743;DHT22;2896;53.500;10.020;2023-04-01T08:35:34;7.00;99.90
5743;DHT22;2896;53.500;10.020;2023-04-01T08:38:06;7.00;99.90
5743;DHT22;2896;53.500;10.020;2023-04-01T08:40:59;7.00;99.90
5743;DHT22;2896;53.500;10.020;2023-04-01T08:43:51;7.00;99.90
5743;DHT22;2896;53.500;10.020;2023-04-01T08:49:54;7.00;99.90
5743;DHT22;2896;53.500;10.020;2023-04-01T08:52:34;7.10;99.90
5743;DHT22;2896;53.500;10.020;2023-04-01T08:55:31;7.20;99.90
5743;DHT22;2896;53.500;10.020;2023-04-01T08:58:37;7.10;99.90
5743;DHT22;2896;53.500;10.020;2023-04-01T09:01:14;7.00;99.90
5743;DHT22;2896;53.500;10.020;2023-04-01T09:03:59;6.90;99.90
5743;DHT22;2896;53.500;10.020;2023-04-01T09:06:40;7.00;99.90
5743;DHT22;2896;53.500;10.020;2023-04-01T09:09:28;7.10;99.90
5743;DHT22;2896;53.500;10.020;2023-04-01T09:12:24;7.00;99.90
5743;DHT22;2896;53.500;10.020;2023-04-01T09:15:18;8.50;99.90
5743;DHT22;2896;53.500;10.020;2023-04-01T09:18:20;6.90;99.90
5743;DHT22;2896;53.500;10.020;2023-04-01T09:20:58;6.80;99.90
5743;DHT22;2896;53.500;10.020;2023-04-01T09:23:40;6.80;99.90
5743;DHT22;2896;53.500;10.020;2023-04-01T09:26:22;6.80;99.90
5743;DHT22;2896;53.500;10.020;2023-04-01T09:28:59;6.90;99.90
5743;DHT22;2896;53.500;10.020;2023-04-01T09:32:07;6.80;99.90
5743;DHT22;2896;53.500;10.020;2023-04-01T09:34:54;6.90;99.90
5743;DHT22;2896;53.500;10.020;2023-04-01T09:37:27;6.90;99.90
5743;DHT22;2896;53.500;10.020;2023-04-01T09:40:14;7.00;99.90
5743;DHT22;2896;53.500;10.020;2023-04-01T09:42:44;7.00;99.90
5743;DHT22;2896;53.500;10.020;2023-04-01T09:45:23;7.00;99.90
5743;DHT22;2896;53.500;10.020;2023-04-01T09:48:04;6.80;99.90
5743;DHT22;2896;53.500;10.020;2023-04-01T09:50:38;6.80;99.90
5743;DHT22;2896;53.500;10.020;2023-04-01T09:53:19;6.80;99.90
5743;DHT22;2896;53.500;10.020;2023-04-01T09:59:14;7.00;99.90
5743;DHT22;2896;53.500;10.020;2023-04-01T10:02:14;7.00;99.90
5743;DHT22;2896;53.500;10.020;2023-04-01T10:05:15;7.00;99.90
5743;DHT22;2896;53.500;10.020;2023-04-01T10:08:12;6.90;99.90
5743;DHT22;2896;53.500;10.020;2023-04-01T10:14:03;7.00;99.90
5743;DHT22;2896;53.500;10.020;2023-04-01T10:20:01;6.90;99.90
5743;DHT22;2896;53.500;10.020;2023-04-01T10:22:46;6.90;99.90
5743;DHT22;2896;53.500;10.020;2023-04-01T10:28:33;7.10;99.90
5743;DHT22;2896;53.500;10.020;2023-04-01T10:37:29;6.90;99.90
5743;DHT22;2896;53.500;10.020;2023-04-01T10:40:29;6.90;99.90
5743;DHT22;2896;53.500;10.020;2023-04-01T10:49:25;7.00;99.90
5743;DHT22;2896;53.500;10.020;2023-04-01T10:52:20;7.20;99.90
5743;DHT22;2896;53.500;10.020;2023-04-01T10:54:49;7.20;99.90
5743;DHT22;2896;53.500;10.020;2023-04-01T10:57:54;7.10;99.90
5743;DHT22;2896;53.500;10.020;2023-04-01T11:03:56;7.20;99.90
5743;DHT22;2896;53.500;10.020;2023-04-01T11:13:46;7.00;99.90
5743;DHT22;2896;53.500;10.020;2023-04-01T11:16:45;7.10;99.90
5743;DHT22;2896;53.500;10.020;2023-04-01T11:25:29;5.70;99.90
5743;DHT22;2896;53.500;10.020;2023-04-01T11:28:25;7.00;99.90
5743;DHT22;2896;53.500;10.020;2023-04-01T11:31:10;7.20;99.90
5743;DHT22;2896;53.500;10.020;2023-04-01T11:33:46;7.20;99.90
5743;DHT22;2896;53.500;10.020;2023-04-01T11:36:30;7.10;99.90
5743;DHT22;2896;53.500;10.020;2023-04-01T11:39:14;7.10;94.40
5743;DHT22;2896;53.500;10.020;2023-04-01T11:41:54;7.20;99.90
5743;DHT22;2896;53.500;10.020;2023-04-01T11:44:25;8.30;1.00
5743;DHT22;2896;53.500;10.020;2023-04-01T11:47:10;7.00;24.60
5743;DHT22;2896;53.500;10.020;2023-04-01T11:49:51;7.10;60.00
5743;DHT22;2896;53.500;10.020;2023-04-01T11:52:35;7.30;99.90
5743;DHT22;2896;53.500;10.020;2023-04-01T11:55:15;7.30;1.00
5743;DHT22;2896;53.500;10.020;2023-04-01T11:58:32;7.30;79.50
5743;DHT22;2896;53.500;10.020;2023-04-01T12:01:12;7.50;99.90
5743;DHT22;2896;53.500;10.020;2023-04-01T12:06:44;7.10;1.00
5743;DHT22;2896;53.500;10.020;2023-04-01T12:09:20;7.00;1.00
5743;DHT22;2896;53.500;10.020;2023-04-01T12:11:57;7.00;1.00
5743;DHT22;2896;53.500;10.020;2023-04-01T12:14:39;7.00;1.00
5743;DHT22;2896;53.500;10.020;2023-04-01T12:17:16;6.80;6.80
5743;DHT22;2896;53.500;10.020;2023-04-01T12:19:52;6.90;90.30
5743;DHT22;2896;53.500;10.020;2023-04-01T12:22:32;6.80;38.10
5743;DHT22;2896;53.500;10.020;2023-04-01T12:25:18;6.80;99.90
5743;DHT22;2896;53.500;10.020;2023-04-01T12:27:52;6.90;99.90
5743;DHT22;2896;53.500;10.020;2023-04-01T12:30:35;6.80;19.00
5743;DHT22;2896;53.500;10.020;2023-04-01T12:33:28;6.80;1.00
5743;DHT22;2896;53.500;10.020;2023-04-01T12:36:08;6.80;1.00
5743;DHT22;2896;53.500;10.020;2023-04-01T12:38:46;6.90;76.90
5743;DHT22;2896;53.500;10.020;2023-04-01T12:41:23;6.80;99.90
5743;DHT22;2896;53.500;10.020;2023-04-01T12:44:16;6.70;1.00
5743;DHT22;2896;53.500;10.020;2023-04-01T12:47:11;6.80;99.90
5743;DHT22;2896;53.500;10.020;2023-04-01T12:49:53;6.70;99.90
5743;DHT22;2896;53.500;10.020;2023-04-01T12:52:26;6.70;1.00
5743;DHT22;2896;53.500;10.020;2023-04-01T12:55:32;6.60;1.00
5743;DHT22;2896;53.500;10.020;2023-04-01T13:01:30;6.50;1.00
5743;DHT22;2896;53.500;10.020;2023-04-01T13:04:43;6.60;1.00
5743;DHT22;2896;53.500;10.020;2023-04-01T13:07:42;6.50;1.00
5743;DHT22;2896;53.500;10.020;2023-04-01T13:10:25;6.40;1.00
5743;DHT22;2896;53.500;10.020;2023-04-01T13:13:17;6.70;99.90
5743;DHT22;2896;53.500;10.020;2023-04-01T13:15:52;6.70;1.00
5743;DHT22;2896;53.500;10.020;2023-04-01T13:18:28;6.60;99.90
5743;DHT22;2896;53.500;10.020;2023-04-01T13:21:04;6.60;1.00
5743;DHT22;2896;53.500;10.020;2023-04-01T13:23:39;5.00;1.00
5743;DHT22;2896;53.500;10.020;2023-04-01T13:26:17;6.60;15.30
5743;DHT22;2896;53.500;10.020;2023-04-01T13:28:50;6.60;99.90
5743;DHT22;2896;53.500;10.020;2023-04-01T13:31:38;6.60;99.90
5743;DHT22;2896;53.500;10.020;2023-04-01T13:34:27;6.50;1.00
5743;DHT22;2896;53.500;10.020;2023-04-01T13:37:05;6.50;99.90
5743;DHT22;2896;53.500;10.020;2023-04-01T13:39:55;6.50;99.90
5743;DHT22;2896;53.500;10.020;2023-04-01T13:42:26;6.50;99.90
5743;DHT22;2896;53.500;10.020;2023-04-01T13:45:01;6.30;99.90
5743;DHT22;2896;53.500;10.020;2023-04-01T13:47:52;6.40;99.90
5743;DHT22;2896;53.500;10.020;2023-04-01T13:50:51;6.40;1.00
5743;DHT22;2896;53.500;10.020;2023-04-01T13:53:39;6.50;1.00
5743;DHT22;2896;53.500;10.020;2023-04-01T13:56:20;6.50;99.90
5743;DHT22;2896;53.500;10.020;2023-04-01T13:59:05;6.60;1.00
5743;DHT22;2896;53.500;10.020;2023-04-01T14:01:41;6.40;1.00
5743;DHT22;2896;53.500;10.020;2023-04-01T14:04:33;6.30;1.00
5743;DHT22;2896;53.500;10.020;2023-04-01T14:07:10;6.40;1.00
5743;DHT22;2896;53.500;10.020;2023-04-01T14:09:59;6.30;99.90
5743;DHT22;2896;53.500;10.020;2023-04-01T14:12:31;6.20;99.90
5743;DHT22;2896;53.500;10.020;2023-04-01T14:18:11;6.20;1.00
5743;DHT22;2896;53.500;10.020;2023-04-01T14:20:41;6.30;99.90
5743;DHT22;2896;53.500;10.020;2023-04-01T14:23:42;6.30;1.00
5743;DHT22;2896;53.500;10.020;2023-04-01T14:26:27;6.40;1.00
5743;DHT22;2896;53.500;10.020;2023-04-01T14:29:09;6.40;99.90
5743;DHT22;2896;53.500;10.020;2023-04-01T14:31:44;6.40;99.90
5743;DHT22;2896;53.500;10.020;2023-04-01T14:34:24;6.30;99.90
5743;DHT22;2896;53.500;10.020;2023-04-01T14:37:04;6.30;99.90
5743;DHT22;2896;53.500;10.020;2023-04-01T14:39:59;6.20;1.00
5743;DHT22;2896;53.500;10.020;2023-04-01T14:42:45;6.30;99.90
5743;DHT22;2896;53.500;10.020;2023-04-01T14:45:45;6.20;99.90
5743;DHT22;2896;53.500;10.020;2023-04-01T14:48:21;6.10;1.00
5743;DHT22;2896;53.500;10.020;2023-04-01T14:50:52;6.00;6.00
5743;DHT22;2896;53.500;10.020;2023-04-01T14:53:27;6.00;1.00
5743;DHT22;2896;53.500;10.020;2023-04-01T14:55:55;6.00;99.90
5743;DHT22;2896;53.500;10.020;2023-04-01T14:58:24;5.90;99.90
5743;DHT22;2896;53.500;10.020;2023-04-01T15:01:00;5.90;99.90
5743;DHT22;2896;53.500;10.020;2023-04-01T15:03:37;6.00;99.90
5743;DHT22;2896;53.500;10.020;2023-04-01T15:06:35;5.90;55.80
5743;DHT22;2896;53.500;10.020;2023-04-01T15:09:12;5.90;1.00
5743;DHT22;2896;53.500;10.020;2023-04-01T15:11:49;5.90;1.00
5743;DHT22;2896;53.500;10.020;2023-04-01T15:14:35;5.90;99.90
5743;DHT22;2896;53.500;10.020;2023-04-01T15:17:19;6.00;1.00
5743;DHT22;2896;53.500;10.020;2023-04-01T15:20:02;6.00;1.00
5743;DHT22;2896;53.500;10.020;2023-04-01T15:22:44;6.10;86.00
5743;DHT22;2896;53.500;10.020;2023-04-01T15:25:34;6.00;99.90
5743;DHT22;2896;53.500;10.020;2023-04-01T15:28:11;5.80;1.00
5743;DHT22;2896;53.500;10.020;2023-04-01T15:30:48;5.80;1.00
5743;DHT22;2896;53.500;10.020;2023-04-01T15:33:32;5.80;1.00
5743;DHT22;2896;53.500;10.020;2023-04-01T15:36:07;5.70;1.00
5743;DHT22;2896;53.500;10.020;2023-04-01T15:38:43;5.70;65.90
5743;DHT22;2896;53.500;10.020;2023-04-01T15:41:16;5.80;99.90
5743;DHT22;2896;53.500;10.020;2023-04-01T15:43:46;5.60;99.90
5743;DHT22;2896;53.500;10.020;2023-04-01T15:46:30;5.60;99.90
5743;DHT22;2896;53.500;10.020;2023-04-01T15:49:08;5.60;99.90
5743;DHT22;2896;53.500;10.020;2023-04-01T15:51:54;5.50;99.90
5743;DHT22;2896;53.500;10.020;2023-04-01T15:54:38;5.60;99.90
5743;DHT22;2896;53.500;10.020;2023-04-01T15:57:24;5.50;99.90
5743;DHT22;2896;53.500;10.020;2023-04-01T16:00:13;5.40;99.90
5743;DHT22;2896;53.500;10.020;2023-04-01T16:02:48;5.40;99.90
5743;DHT22;2896;53.500;10.020;2023-04-01T16:05:32;5.50;99.90
5743;DHT22;2896;53.500;10.020;2023-04-01T16:08:15;5.30;99.90
5743;DHT22;2896;53.500;10.020;2023-04-01T16:11:11;5.30;99.90
5743;DHT22;2896;53.500;10.020;2023-04-01T16:13:48;5.20;99.90
5743;DHT22;2896;53.500;10.020;2023-04-01T16:16:28;5.20;99.90
5743;DHT22;2896;53.500;10.020;2023-04-01T16:19:11;5.20;99.90
5743;DHT22;2896;53.500;10.020;2023-04-01T16:21:45;5.20;99.90
5743;DHT22;2896;53.500;10.020;2023-04-01T16:24:19;5.20;99.90
5743;DHT22;2896;53.500;10.020;2023-04-01T16:26:55;5.30;99.90
5743;DHT22;2896;53.500;10.020;2023-04-01T16:29:30;5.10;99.90
5743;DHT22;2896;53.500;10.020;2023-04-01T16:32:14;5.20;99.90
5743;DHT22;2896;53.500;10.020;2023-04-01T16:34:45;5.10;99.90
5743;DHT22;2896;53.500;10.020;2023-04-01T16:37:20;5.10;99.90
5743;DHT22;2896;53.500;10.020;2023-04-01T16:39:52;5.10;99.90
5743;DHT22;2896;53.500;10.020;2023-04-01T16:42:28;5.20;99.90
5743;DHT22;2896;53.500;10.020;2023-04-01T16:45:02;5.00;59.40
5743;DHT22;2896;53.500;10.020;2023-04-01T16:47:38;5.10;99.90
5743;DHT22;2896;53.500;10.020;2023-04-01T16:50:14;5.10;98.20
5743;DHT22;2896;53.500;10.020;2023-04-01T16:52:57;5.10;99.90
5743;DHT22;2896;53.500;10.020;2023-04-01T16:55:34;4.90;63.00
5743;DHT22;2896;53.500;10.020;2023-04-01T16:58:03;4.90;6.70
5743;DHT22;2896;53.500;10.020;2023-04-01T17:00:37;4.70;1.00
5743;DHT22;2896;53.500;10.020;2023-04-01T17:03:11;4.60;1.00
5743;DHT22;2896;53.500;10.020;2023-04-01T17:05:52;4.60;1.00
5743;DHT22;2896;53.500;10.020;2023-04-01T17:08:29;4.70;88.90
5743;DHT22;2896;53.500;10.020;2023-04-01T17:11:06;4.70;17.20
5743;DHT22;2896;53.500;10.020;2023-04-01T17:13:41;4.60;1.00
5743;DHT22;2896;53.500;10.020;2023-04-01T17:16:28;4.60;1.00
5743;DHT22;2896;53.500;10.020;2023-04-01T17:19:08;4.60;1.00
5743;DHT22;2896;53.500;10.020;2023-04-01T17:21:49;4.50;1.00
5743;DHT22;2896;53.500;10.020;2023-04-01T17:24:27;4.50;1.00
5743;DHT22;2896;53.500;10.020;2023-04-01T17:27:02;4.50;1.00
5743;DHT22;2896;53.500;10.020;2023-04-01T17:29:42;4.40;1.00
5743;DHT22;2896;53.500;10.020;2023-04-01T17:32:15;4.50;1.00
5743;DHT22;2896;53.500;10.020;2023-04-01T17:34:57;4.50;1.00
5743;DHT22;2896;53.500;10.020;2023-04-01T17:37:37;4.40;1.00
5743;DHT22;2896;53.500;10.020;2023-04-01T17:40:27;4.50;37.60
5743;DHT22;2896;53.500;10.020;2023-04-01T17:43:00;4.50;1.00
5743;DHT22;2896;53.500;10.020;2023-04-01T17:45:33;4.50;1.00
5743;DHT22;2896;53.500;10.020;2023-04-01T17:48:13;4.50;1.00
5743;DHT22;2896;53.500;10.020;2023-04-01T17:50:53;4.50;99.90
5743;DHT22;2896;53.500;10.020;2023-04-01T17:53:35;4.50;99.90
5743;DHT22;2896;53.500;10.020;2023-04-01T17:56:15;4.50;99.90
5743;DHT22;2896;53.500;10.020;2023-04-01T17:58:46;4.60;99.90
5743;DHT22;2896;53.500;10.020;2023-04-01T18:01:24;4.50;1.00
5743;DHT22;2896;53.500;10.020;2023-04-01T18:04:07;4.50;99.90